Time;durP1;ratioP1;P1;durP2;ratioP2;P2;SDS_P1;SDS_P2;PMS_P1;PMS_P2;Temp;Humidity;BMP_temperature;BMP_pressure;BME280_temperature;BME280_humidity;BME280_pressure;Samples;Min_cycle;Max_cycle;Signal;HPM_P1;HPM_P2
2021/01/24 00:00:19;;;;;;;0.50;0.50;;;0.90;99.90;;;;;;5070519;28;20242;-89
2021/01/24 00:02:48;;;;;;;0.60;0.60;;;0.80;99.90;;;;;;5068977;28;20206;-89
2021/01/24 00:05:15;;;;;;;0.60;0.60;;;0.80;99.90;;;;;;5074161;28;20607;-86
2021/01/24 00:07:42;;;;;;;0.60;0.60;;;0.90;99.90;;;;;;5071491;28;20204;-87
2021/01/24 00:10:09;;;;;;;0.50;0.50;;;0.90;99.90;;;;;;5071767;28;20223;-84
2021/01/24 00:12:38;;;;;;;0.60;0.60;;;0.90;99.90;;;;;;5069674;28;20216;-83
2021/01/24 00:15:05;;;;;;;0.60;0.60;;;0.90;99.90;;;;;;5071140;28;20215;-88
2021/01/24 00:17:34;;;;;;;0.60;0.60;;;1.00;99.90;;;;;;5070555;28;20203;-87
2021/01/24 00:20:00;;;;;;;0.60;0.60;;;1.10;99.90;;;;;;5070268;28;20235;-87
2021/01/24 00:22:28;;;;;;;0.60;0.60;;;1.00;99.90;;;;;;5072514;28;20673;-90
2021/01/24 00:24:54;;;;;;;0.60;0.60;;;1.10;99.90;;;;;;5073657;28;20216;-89
2021/01/24 00:27:20;;;;;;;0.60;0.60;;;1.10;99.90;;;;;;5073647;28;20196;-90
2021/01/24 00:29:46;;;;;;;0.50;0.50;;;1.30;99.90;;;;;;5073395;28;20255;-90
2021/01/24 00:32:13;;;;;;;0.60;0.60;;;1.00;99.90;;;;;;5074373;28;20203;-89
2021/01/24 00:34:40;;;;;;;0.60;0.60;;;1.00;99.90;;;;;;5074093;28;20211;-89
2021/01/24 00:37:07;;;;;;;0.60;0.60;;;1.10;99.90;;;;;;5073123;28;20211;-91
2021/01/24 00:39:34;;;;;;;0.50;0.50;;;1.10;99.90;;;;;;5076335;28;20592;-89
2021/01/24 00:42:00;;;;;;;0.60;0.60;;;1.20;99.90;;;;;;5071678;28;20208;-89
2021/01/24 00:44:26;;;;;;;0.60;0.60;;;1.20;99.90;;;;;;5073144;28;20689;-89
2021/01/24 00:46:52;;;;;;;0.60;0.60;;;1.20;99.90;;;;;;5077631;28;20623;-89
2021/01/24 00:49:19;;;;;;;0.60;0.60;;;2.00;99.90;;;;;;5077746;28;20715;-89
2021/01/24 00:51:45;;;;;;;0.60;0.60;;;1.20;99.90;;;;;;5077056;28;20207;-89
2021/01/24 00:54:11;;;;;;;0.60;0.60;;;1.10;99.90;;;;;;5077617;28;20210;-90
2021/01/24 00:56:38;;;;;;;0.60;0.60;;;1.10;99.90;;;;;;5078636;28;20203;-90
2021/01/24 00:59:04;;;;;;;0.60;0.60;;;1.10;99.90;;;;;;5079466;28;20220;-90
2021/01/24 01:01:31;;;;;;;0.60;0.60;;;1.10;99.90;;;;;;5077890;28;20227;-89
2021/01/24 01:03:57;;;;;;;0.50;0.50;;;1.10;99.90;;;;;;5080711;28;20705;-89
2021/01/24 01:06:23;;;;;;;0.60;0.60;;;1.10;99.90;;;;;;5079887;28;20203;-89
2021/01/24 01:08:50;;;;;;;0.60;0.60;;;1.10;99.90;;;;;;5078817;28;20219;-90
2021/01/24 01:11:16;;;;;;;0.60;0.60;;;1.00;99.90;;;;;;5076617;28;20277;-90
2021/01/24 01:13:43;;;;;;;0.52;0.52;;;0.90;99.90;;;;;;5077809;28;20212;-90
2021/01/24 01:16:09;;;;;;;0.50;0.50;;;0.90;99.90;;;;;;5074367;28;20662;-90
2021/01/24 01:18:35;;;;;;;0.60;0.60;;;0.80;99.90;;;;;;5078353;28;20195;-90
2021/01/24 01:21:05;;;;;;;0.60;0.60;;;0.80;99.90;;;;;;5076336;28;20454;-91
2021/01/24 01:23:31;;;;;;;0.60;0.60;;;0.80;99.90;;;;;;5069009;28;20228;-90
2021/01/24 01:25:57;;;;;;;0.60;0.60;;;0.70;99.90;;;;;;5068831;28;20649;-89
2021/01/24 01:28:26;;;;;;;0.60;0.60;;;0.60;99.90;;;;;;5068878;28;20604;-90
2021/01/24 01:30:53;;;;;;;0.60;0.60;;;0.50;99.90;;;;;;5074478;28;20736;-90
2021/01/24 01:33:19;;;;;;;0.52;0.52;;;0.50;99.90;;;;;;5072340;28;20208;-90
2021/01/24 01:35:46;;;;;;;0.50;0.50;;;0.50;99.90;;;;;;5075422;28;20214;-90
2021/01/24 01:38:12;;;;;;;0.50;0.50;;;0.50;99.90;;;;;;5078639;28;20199;-90
2021/01/24 01:40:38;;;;;;;0.60;0.60;;;0.40;99.90;;;;;;5079755;28;20196;-90
2021/01/24 01:43:04;;;;;;;0.52;0.52;;;0.40;99.90;;;;;;5067849;28;20204;-89
2021/01/24 01:45:31;;;;;;;0.60;0.60;;;0.40;99.90;;;;;;5066708;28;20210;-90
2021/01/24 01:55:44;;;;;;;0.60;0.60;;;0.20;99.90;;;;;;3137063;26;20717;-82
2021/01/24 01:58:10;;;;;;;0.60;0.60;;;0.20;99.90;;;;;;5021879;28;20216;-80
2021/01/24 02:00:38;;;;;;;0.60;0.60;;;0.20;99.90;;;;;;5025381;28;20196;-80
2021/01/24 02:03:25;;;;;;;0.60;0.60;;;0.20;99.90;;;;;;5025678;28;20721;-80
2021/01/24 02:05:56;;;;;;;0.60;0.60;;;0.20;99.90;;;;;;5025229;28;20674;-81
2021/01/24 02:08:30;;;;;;;0.57;0.57;;;0.20;99.90;;;;;;5026650;28;20213;-81
2021/01/24 02:11:12;;;;;;;0.60;0.60;;;0.30;99.90;;;;;;5026574;28;20865;-81
2021/01/24 02:13:48;;;;;;;0.60;0.60;;;0.60;99.90;;;;;;5027124;28;20201;-81
2021/01/24 02:16:17;;;;;;;0.60;0.60;;;0.10;99.90;;;;;;5026956;28;20563;-80
2021/01/24 02:18:48;;;;;;;0.55;0.55;;;0.80;99.90;;;;;;5026858;28;20235;-80
2021/01/24 02:21:25;;;;;;;0.55;0.55;;;0.30;99.90;;;;;;5027023;28;20208;-80
2021/01/24 02:23:55;;;;;;;0.60;0.60;;;0.20;99.90;;;;;;5026619;28;20211;-81
2021/01/24 02:29:56;;;;;;;0.60;0.60;;;0.30;99.90;;;;;;4905412;29;20632;-81
2021/01/24 02:32:25;;;;;;;0.60;0.60;;;0.20;99.90;;;;;;4908093;29;20265;-80
2021/01/24 02:34:53;;;;;;;0.60;0.60;;;0.30;99.90;;;;;;4918876;28;20680;-81
2021/01/24 02:37:20;;;;;;;0.60;0.60;;;0.20;99.90;;;;;;5026464;28;20197;-81
2021/01/24 02:39:47;;;;;;;0.57;0.57;;;;;;;;;;5026305;28;20201;-81
2021/01/24 02:42:16;;;;;;;0.60;0.60;;;0.30;99.90;;;;;;5027067;28;20204;-79
2021/01/24 02:44:45;;;;;;;0.60;0.60;;;0.30;99.90;;;;;;5026909;28;20253;-79
2021/01/24 02:47:12;;;;;;;0.50;0.50;;;0.30;99.90;;;;;;5026888;28;20259;-79
2021/01/24 02:49:42;;;;;;;0.60;0.60;;;0.30;99.90;;;;;;5026208;28;20275;-79
2021/01/24 02:52:08;;;;;;;0.50;0.50;;;0.10;99.90;;;;;;5026441;28;20247;-79
2021/01/24 02:54:40;;;;;;;0.50;0.50;;;0.30;99.90;;;;;;5026170;28;20267;-78
2021/01/24 02:57:07;;;;;;;0.50;0.50;;;1.60;99.90;;;;;;5026170;28;20235;-79
2021/01/24 02:59:35;;;;;;;0.60;0.60;;;0.40;99.90;;;;;;5026240;28;20702;-79
2021/01/24 03:02:03;;;;;;;0.50;0.50;;;0.50;99.90;;;;;;5026552;28;20232;-79
2021/01/24 03:04:32;;;;;;;0.60;0.60;;;0.50;99.90;;;;;;5026622;28;20211;-80
2021/01/24 03:07:01;;;;;;;0.60;0.60;;;0.50;99.90;;;;;;5026687;28;20205;-80
2021/01/24 03:09:27;;;;;;;0.57;0.57;;;0.50;99.90;;;;;;5029350;28;20228;-79
2021/01/24 03:11:55;;;;;;;0.50;0.50;;;0.50;99.90;;;;;;5027938;28;20197;-79
2021/01/24 03:14:24;;;;;;;0.60;0.60;;;0.50;99.90;;;;;;5029980;28;20204;-80
2021/01/24 03:16:57;;;;;;;0.50;0.50;;;0.80;99.90;;;;;;5030629;28;20220;-80
2021/01/24 03:19:26;;;;;;;0.60;0.60;;;0.80;99.90;;;;;;5030930;28;20303;-80
2021/01/24 03:21:53;;;;;;;0.55;0.55;;;0.90;99.90;;;;;;5030557;28;20198;-80
2021/01/24 03:24:23;;;;;;;0.60;0.60;;;1.00;99.90;;;;;;5030806;28;20216;-80
2021/01/24 03:26:51;;;;;;;0.50;0.50;;;1.10;99.90;;;;;;5030707;28;20216;-80
2021/01/24 03:29:18;;;;;;;0.57;0.57;;;1.10;99.90;;;;;;5030500;28;20247;-80
2021/01/24 03:31:45;;;;;;;0.60;0.60;;;1.20;99.90;;;;;;5030847;28;20215;-80
2021/01/24 03:34:18;;;;;;;0.50;0.50;;;1.20;99.90;;;;;;5031075;28;20201;-80
2021/01/24 03:36:48;;;;;;;0.60;0.60;;;1.20;99.90;;;;;;5030638;28;20213;-80
2021/01/24 03:39:16;;;;;;;0.50;0.50;;;1.80;99.90;;;;;;5030741;28;20662;-80
2021/01/24 03:41:44;;;;;;;0.55;0.55;;;2.40;99.90;;;;;;5030918;28;20208;-80
2021/01/24 03:44:10;;;;;;;0.60;0.60;;;1.20;99.90;;;;;;5030738;28;20205;-80
2021/01/24 03:46:40;;;;;;;0.57;0.57;;;1.20;99.90;;;;;;5030751;28;20292;-81
2021/01/24 03:49:07;;;;;;;0.60;0.60;;;1.20;99.90;;;;;;5030243;28;20229;-80
2021/01/24 03:51:34;;;;;;;0.60;0.60;;;1.30;99.90;;;;;;5030206;28;20434;-80
2021/01/24 03:54:00;;;;;;;0.60;0.60;;;1.40;99.90;;;;;;5030440;28;20213;-80
2021/01/24 03:56:29;;;;;;;0.50;0.50;;;1.30;99.90;;;;;;5030488;28;20245;-80
2021/01/24 03:58:56;;;;;;;0.60;0.60;;;1.40;99.90;;;;;;5030488;28;20559;-80
2021/01/24 04:01:22;;;;;;;0.60;0.60;;;1.40;99.90;;;;;;5030211;28;20208;-82
2021/01/24 04:03:50;;;;;;;0.50;0.50;;;1.20;99.90;;;;;;5029748;28;20556;-82
2021/01/24 04:06:17;;;;;;;0.60;0.60;;;;;;;;;;5029945;28;20208;-82
2021/01/24 04:08:44;;;;;;;0.60;0.60;;;1.40;99.90;;;;;;5030351;28;20209;-81
2021/01/24 04:11:10;;;;;;;0.60;0.60;;;1.40;99.90;;;;;;5030403;28;20216;-81
2021/01/24 04:13:37;;;;;;;0.60;0.60;;;1.20;99.90;;;;;;5029971;28;20209;-80
2021/01/24 04:16:07;;;;;;;0.55;0.55;;;1.60;99.90;;;;;;5029776;28;20200;-81
2021/01/24 04:21:46;;;;;;;0.50;0.50;;;;;;;;;;5028406;28;20287;-82
2021/01/24 04:24:12;;;;;;;0.60;0.60;;;1.50;99.90;;;;;;5030306;28;20563;-81
2021/01/24 04:26:38;;;;;;;0.60;0.60;;;1.50;99.90;;;;;;5029766;28;20197;-82
2021/01/24 04:29:04;;;;;;;0.60;0.60;;;1.50;99.90;;;;;;5029295;28;20511;-81
2021/01/24 04:31:31;;;;;;;0.57;0.57;;;1.60;99.90;;;;;;5029565;28;20209;-81
2021/01/24 04:33:58;;;;;;;0.60;0.60;;;;;;;;;;5029759;28;20208;-81
2021/01/24 04:36:24;;;;;;;0.57;0.57;;;1.50;99.90;;;;;;5029775;28;20208;-81
2021/01/24 04:38:50;;;;;;;0.60;0.60;;;2.00;99.90;;;;;;5029207;28;20460;-81
2021/01/24 04:41:19;;;;;;;0.60;0.60;;;;;;;;;;5029292;28;20201;-81
2021/01/24 04:43:46;;;;;;;0.50;0.50;;;1.50;99.90;;;;;;5029568;28;20292;-81
2021/01/24 04:46:13;;;;;;;0.60;0.60;;;;;;;;;;5029794;28;20201;-81
2021/01/24 04:48:40;;;;;;;0.50;0.50;;;1.50;99.90;;;;;;5029316;28;20201;-82
2021/01/24 04:51:06;;;;;;;0.60;0.60;;;1.30;99.90;;;;;;5028823;28;20237;-82
2021/01/24 04:53:33;;;;;;;0.60;0.60;;;1.10;99.90;;;;;;5029095;28;20209;-82
2021/01/24 04:56:01;;;;;;;0.50;0.50;;;1.40;99.90;;;;;;5029014;28;20617;-82
2021/01/24 04:58:28;;;;;;;0.60;0.60;;;1.40;99.90;;;;;;5029418;28;20201;-82
2021/01/24 05:00:54;;;;;;;0.60;0.60;;;1.40;99.90;;;;;;5029047;28;20212;-82
2021/01/24 05:03:21;;;;;;;0.52;0.52;;;;;;;;;;5028854;28;20205;-82
2021/01/24 05:05:51;;;;;;;0.60;0.60;;;1.40;99.90;;;;;;5028891;28;20213;-82
2021/01/24 05:08:25;;;;;;;0.57;0.57;;;1.40;99.90;;;;;;5028871;28;20231;-82
2021/01/24 05:10:54;;;;;;;0.60;0.60;;;0.60;99.90;;;;;;5028540;28;20255;-82
2021/01/24 05:13:26;;;;;;;0.60;0.60;;;1.10;99.90;;;;;;5028595;28;20215;-82
2021/01/24 05:15:55;;;;;;;0.55;0.55;;;1.30;99.90;;;;;;5028543;28;20297;-82
2021/01/24 05:18:22;;;;;;;0.50;0.50;;;1.30;99.90;;;;;;5028517;28;20205;-82
2021/01/24 05:20:52;;;;;;;0.60;0.60;;;1.30;99.90;;;;;;5028648;28;20208;-82
2021/01/24 05:23:19;;;;;;;0.60;0.60;;;1.40;99.90;;;;;;5028504;28;20212;-82
2021/01/24 05:25:52;;;;;;;0.60;0.60;;;1.30;99.90;;;;;;5028555;28;20209;-82
2021/01/24 05:28:20;;;;;;;0.50;0.50;;;1.20;99.90;;;;;;5028451;28;20201;-82
2021/01/24 05:30:58;;;;;;;0.50;0.50;;;1.20;99.90;;;;;;5027908;28;20233;-82
2021/01/24 05:33:28;;;;;;;0.60;0.60;;;1.00;99.90;;;;;;5028452;28;20240;-81
2021/01/24 05:35:57;;;;;;;0.60;0.60;;;1.20;99.90;;;;;;5028613;28;20263;-82
2021/01/24 05:38:27;;;;;;;0.60;0.60;;;1.20;99.90;;;;;;5028403;28;20208;-82
2021/01/24 05:40:54;;;;;;;0.50;0.50;;;;;;;;;;5028215;28;20201;-82
2021/01/24 05:43:24;;;;;;;0.60;0.60;;;1.10;99.90;;;;;;5028056;28;20259;-82
2021/01/24 05:45:52;;;;;;;0.60;0.60;;;1.10;99.90;;;;;;5028131;28;20213;-82
2021/01/24 05:48:25;;;;;;;0.50;0.50;;;1.50;99.90;;;;;;5028131;28;20699;-82
2021/01/24 05:50:52;;;;;;;0.60;0.60;;;1.10;99.90;;;;;;5027853;28;20225;-81
2021/01/24 05:53:19;;;;;;;0.60;0.60;;;1.10;99.90;;;;;;5028176;28;20193;-81
2021/01/24 05:55:45;;;;;;;0.55;0.55;;;1.10;99.90;;;;;;5027798;28;20255;-82
2021/01/24 05:58:16;;;;;;;0.60;0.60;;;1.10;99.90;;;;;;5028410;28;20216;-81
2021/01/24 06:00:43;;;;;;;0.52;0.52;;;1.00;99.90;;;;;;5028475;28;20215;-82
2021/01/24 06:03:10;;;;;;;0.60;0.60;;;1.10;99.90;;;;;;5027904;28;20610;-81
2021/01/24 06:05:39;;;;;;;0.60;0.60;;;0.90;99.90;;;;;;5027750;28;20200;-81
2021/01/24 06:08:08;;;;;;;0.50;0.50;;;1.00;99.90;;;;;;5027783;28;20454;-81
2021/01/24 06:10:36;;;;;;;0.55;0.55;;;2.00;99.90;;;;;;5027659;28;20229;-81
2021/01/24 06:13:04;;;;;;;0.60;0.60;;;0.80;99.90;;;;;;5027532;28;20216;-79
2021/01/24 06:15:32;;;;;;;0.57;0.57;;;1.00;99.90;;;;;;5027713;28;20752;-80
2021/01/24 06:18:00;;;;;;;0.50;0.50;;;0.90;99.90;;;;;;5027829;28;20205;-81
2021/01/24 06:20:34;;;;;;;0.50;0.50;;;1.00;99.90;;;;;;5028223;28;20663;-80
2021/01/24 06:23:05;;;;;;;0.60;0.60;;;0.90;99.90;;;;;;5027788;28;20212;-80
2021/01/24 06:25:33;;;;;;;0.50;0.50;;;1.00;99.90;;;;;;5027629;28;20215;-81
2021/01/24 06:28:07;;;;;;;0.50;0.50;;;0.90;99.90;;;;;;5027575;28;20572;-81
2021/01/24 06:30:35;;;;;;;0.60;0.60;;;0.90;99.90;;;;;;5027413;28;20225;-81
2021/01/24 06:33:17;;;;;;;0.60;0.60;;;3.00;99.90;;;;;;5027247;28;20201;-81
2021/01/24 06:35:48;;;;;;;0.60;0.60;;;1.00;99.90;;;;;;5026426;28;20201;-81
2021/01/24 06:38:31;;;;;;;0.60;0.60;;;1.60;99.90;;;;;;5027542;28;20740;-80
2021/01/24 06:40:58;;;;;;;0.60;0.60;;;0.90;99.90;;;;;;5026777;28;20200;-80
2021/01/24 06:43:34;;;;;;;0.50;0.50;;;0.90;99.90;;;;;;5028970;28;20201;-80
2021/01/24 06:46:01;;;;;;;0.57;0.57;;;0.90;99.90;;;;;;5031665;28;20212;-80
2021/01/24 06:48:47;;;;;;;0.50;0.50;;;2.40;99.90;;;;;;5031834;28;20208;-80
2021/01/24 06:51:33;;;;;;;0.60;0.60;;;0.80;99.90;;;;;;5031614;28;20259;-81
2021/01/24 06:54:00;;;;;;;0.50;0.50;;;0.80;99.90;;;;;;5031358;28;20216;-80
2021/01/24 06:56:37;;;;;;;0.60;0.60;;;0.70;99.90;;;;;;5031666;28;20245;-80
2021/01/24 06:59:05;;;;;;;0.60;0.60;;;0.50;99.90;;;;;;5031200;28;20204;-80
2021/01/24 07:01:31;;;;;;;0.60;0.60;;;0.80;99.90;;;;;;5031185;28;20220;-80
2021/01/24 07:04:41;;;;;;;0.52;0.52;;;0.80;99.90;;;;;;5031619;28;20209;-80
2021/01/24 07:07:33;;;;;;;0.50;0.50;;;0.90;99.90;;;;;;5031265;28;20219;-80
2021/01/24 07:10:06;;;;;;;0.50;0.50;;;0.80;99.90;;;;;;5031261;28;20225;-80
2021/01/24 07:12:44;;;;;;;0.60;0.60;;;0.80;99.90;;;;;;5031054;28;20236;-80
2021/01/24 07:15:20;;;;;;;0.50;0.50;;;1.20;99.90;;;;;;5031276;28;20205;-80
2021/01/24 07:17:56;;;;;;;0.50;0.50;;;0.70;99.90;;;;;;5030773;28;20208;-80
2021/01/24 07:20:23;;;;;;;0.60;0.60;;;0.80;99.90;;;;;;5030828;28;20209;-81
2021/01/24 07:22:55;;;;;;;0.60;0.60;;;0.60;99.90;;;;;;5031145;28;20196;-80
2021/01/24 07:25:23;;;;;;;0.60;0.60;;;0.70;99.90;;;;;;5030638;28;20216;-80
2021/01/24 07:27:53;;;;;;;0.50;0.50;;;0.60;99.90;;;;;;5030874;28;20299;-80
2021/01/24 07:30:25;;;;;;;0.60;0.60;;;0.50;99.90;;;;;;5030487;28;20269;-80
2021/01/24 07:32:51;;;;;;;0.60;0.60;;;0.80;99.90;;;;;;5030507;28;20211;-80
2021/01/24 07:35:18;;;;;;;0.60;0.60;;;0.80;99.90;;;;;;5030659;28;20216;-80
2021/01/24 07:37:44;;;;;;;0.60;0.60;;;0.80;99.90;;;;;;5030846;28;20296;-80
2021/01/24 07:40:11;;;;;;;0.60;0.60;;;1.20;99.90;;;;;;5031058;28;20258;-80
2021/01/24 07:42:38;;;;;;;0.60;0.60;;;0.80;99.90;;;;;;5030719;28;20267;-80
2021/01/24 07:45:05;;;;;;;0.60;0.60;;;0.80;99.90;;;;;;5030420;28;20205;-80
2021/01/24 07:47:32;;;;;;;0.57;0.57;;;0.80;99.90;;;;;;5030321;28;20209;-80
2021/01/24 07:49:58;;;;;;;0.60;0.60;;;0.80;99.90;;;;;;5030819;28;20602;-80
2021/01/24 07:52:24;;;;;;;0.60;0.60;;;0.70;99.90;;;;;;5030287;28;20208;-80
2021/01/24 07:54:52;;;;;;;0.60;0.60;;;0.80;99.90;;;;;;5029647;28;20263;-80
2021/01/24 07:57:19;;;;;;;0.60;0.60;;;0.70;99.90;;;;;;5030038;28;20205;-81
2021/01/24 07:59:47;;;;;;;0.60;0.60;;;0.40;99.90;;;;;;5030561;28;20685;-80
2021/01/24 08:02:14;;;;;;;0.57;0.57;;;0.70;99.90;;;;;;5030628;28;20623;-80
2021/01/24 08:04:42;;;;;;;0.50;0.50;;;0.70;99.90;;;;;;5030401;28;20251;-80
2021/01/24 08:07:12;;;;;;;0.60;0.60;;;0.60;99.90;;;;;;5029975;28;20243;-80
2021/01/24 08:09:38;;;;;;;0.60;0.60;;;0.70;99.90;;;;;;5029945;28;20221;-80
2021/01/24 08:12:12;;;;;;;0.60;0.60;;;0.60;99.90;;;;;;5030114;28;20567;-80
2021/01/24 08:14:39;;;;;;;0.60;0.60;;;0.60;99.90;;;;;;5030145;28;20212;-80
2021/01/24 08:17:08;;;;;;;0.60;0.60;;;0.40;99.90;;;;;;5029901;28;20271;-80
2021/01/24 08:19:35;;;;;;;0.60;0.60;;;0.70;99.90;;;;;;5029639;28;20255;-81
2021/01/24 08:22:02;;;;;;;0.60;0.60;;;0.70;99.90;;;;;;5029774;28;20637;-80
2021/01/24 08:24:29;;;;;;;0.50;0.50;;;0.80;99.90;;;;;;5030722;28;20204;-81
2021/01/24 08:27:09;;;;;;;0.60;0.60;;;0.30;99.90;;;;;;5053968;22;20231;-86
2021/01/24 08:39:05;;;;;;;0.60;0.60;;;3.30;99.90;;;;;;5011346;28;20197;-85
2021/01/24 08:41:33;;;;;;;0.60;0.60;;;0.80;99.90;;;;;;5047515;28;20726;-85
2021/01/24 08:44:09;;;;;;;0.50;0.50;;;0.70;99.90;;;;;;5051720;28;20204;-85
2021/01/24 08:46:38;;;;;;;0.50;0.50;;;0.70;99.90;;;;;;5053286;28;20211;-85
2021/01/24 08:49:09;;;;;;;0.57;0.57;;;2.10;99.90;;;;;;5052489;28;20474;-85
2021/01/24 08:51:44;;;;;;;0.60;0.60;;;0.90;99.90;;;;;;5051661;28;20484;-85
2021/01/24 08:54:27;;;;;;;0.50;0.50;;;1.10;99.90;;;;;;5052674;28;20203;-85
2021/01/24 08:57:08;;;;;;;0.60;0.60;;;2.80;99.90;;;;;;5052681;28;20200;-85
2021/01/24 08:59:35;;;;;;;0.60;0.60;;;;;;;;;;5052805;28;20819;-85
2021/01/24 09:02:02;;;;;;;0.60;0.60;;;;;;;;;;5052630;28;20283;-85
2021/01/24 09:04:31;;;;;;;0.60;0.60;;;0.80;99.90;;;;;;5052699;28;20235;-86
2021/01/24 09:07:09;;;;;;;0.50;0.50;;;0.60;99.90;;;;;;5051384;28;20644;-85
2021/01/24 09:09:38;;;;;;;0.60;0.60;;;1.00;99.90;;;;;;5052642;28;20278;-85
2021/01/24 09:12:09;;;;;;;0.52;0.52;;;2.40;99.90;;;;;;5052625;28;20216;-86
2021/01/24 09:14:36;;;;;;;0.60;0.60;;;;;;;;;;5053726;28;20224;-85
2021/01/24 09:17:06;;;;;;;0.50;0.50;;;1.10;99.90;;;;;;5052520;28;20236;-85
2021/01/24 09:19:33;;;;;;;0.60;0.60;;;;;;;;;;5052370;28;20204;-85
2021/01/24 09:21:59;;;;;;;0.60;0.60;;;;;;;;;;5052984;28;20215;-85
2021/01/24 09:24:26;;;;;;;0.50;0.50;;;1.30;99.90;;;;;;5051880;28;20208;-85
2021/01/24 09:26:54;;;;;;;0.50;0.50;;;1.00;99.90;;;;;;5051382;28;20211;-85
2021/01/24 09:29:20;;;;;;;0.60;0.60;;;1.30;99.90;;;;;;5051436;28;20246;-86
2021/01/24 09:31:47;;;;;;;0.52;0.52;;;;;;;;;;5052120;28;20204;-85
2021/01/24 09:34:13;;;;;;;0.60;0.60;;;1.50;99.90;;;;;;5052013;28;20299;-85
2021/01/24 09:36:40;;;;;;;0.60;0.60;;;1.30;99.90;;;;;;5051885;28;20200;-86
2021/01/24 09:39:07;;;;;;;0.50;0.50;;;2.50;99.90;;;;;;5051044;28;20208;-85
2021/01/24 09:41:34;;;;;;;0.60;0.60;;;1.60;99.90;;;;;;5051668;28;20255;-85
2021/01/24 09:44:02;;;;;;;0.57;0.57;;;1.60;99.90;;;;;;5052314;28;20211;-85
2021/01/24 09:46:29;;;;;;;0.50;0.50;;;;;;;;;;5051642;28;20239;-86
2021/01/24 09:48:55;;;;;;;0.60;0.60;;;1.70;99.90;;;;;;5051911;28;20239;-86
2021/01/24 09:51:22;;;;;;;0.50;0.50;;;;;;;;;;5053020;28;20280;-87
2021/01/24 10:04:34;;;;;;;0.60;0.60;;;2.00;99.90;;;;;;5109161;27;20536;-86
2021/01/24 10:07:01;;;;;;;0.60;0.60;;;;;;;;;;5110220;27;20672;-86
2021/01/24 10:09:27;;;;;;;0.60;0.60;;;;;;;;;;5110557;28;20191;-86
2021/01/24 10:12:05;;;;;;;0.60;0.60;;;1.90;99.90;;;;;;5110730;27;20728;-88
2021/01/24 10:14:31;;;;;;;0.60;0.60;;;;;;;;;;5109887;28;20193;-86
2021/01/24 10:16:58;;;;;;;0.52;0.52;;;;;;;;;;5110749;27;20595;-86
2021/01/24 10:19:28;;;;;;;0.60;0.60;;;2.80;99.90;;;;;;5108811;28;20205;-87
2021/01/24 10:22:14;;;;;;;0.60;0.60;;;1.50;99.90;;;;;;5113528;27;20221;-86
2021/01/24 10:24:41;;;;;;;0.60;0.60;;;;;;;;;;5111510;27;20232;-86
2021/01/24 10:27:07;;;;;;;0.60;0.60;;;2.20;99.90;;;;;;5111360;28;20560;-86
2021/01/24 10:29:54;;;;;;;0.60;0.60;;;2.20;99.90;;;;;;5113985;28;20207;-87
2021/01/24 10:32:51;;;;;;;0.50;0.50;;;2.40;99.90;;;;;;5112293;28;20243;-87
2021/01/24 10:35:28;;;;;;;0.60;0.60;;;2.30;99.90;;;;;;5112894;28;20190;-87
2021/01/24 10:38:13;;;;;;;0.60;0.60;;;2.40;99.90;;;;;;5115573;28;20190;-88
2021/01/24 10:41:16;;;;;;;0.52;0.52;;;2.40;99.90;;;;;;5116789;28;20250;-88
2021/01/24 10:44:14;;;;;;;0.60;0.60;;;2.50;99.90;;;;;;5116114;28;20290;-89
2021/01/24 10:46:52;;;;;;;0.60;0.60;;;2.60;99.90;;;;;;5117840;27;20198;-87
2021/01/24 10:56:18;;;;;;;0.50;0.50;;;2.90;99.90;;;;;;5121543;28;20215;-86
2021/01/24 11:01:52;;;;;;;0.57;0.57;;;2.80;99.90;;;;;;5068915;28;20246;-90
2021/01/24 11:04:20;;;;;;;0.60;0.60;;;;;;;;;;4994412;28;20328;-86
2021/01/24 11:06:47;;;;;;;0.60;0.60;;;;;;;;;;5081860;28;20336;-89
2021/01/24 11:16:30;;;;;;;0.60;0.60;;;3.10;99.90;;;;;;5067172;28;20182;-88
2021/01/24 11:19:02;;;;;;;0.60;0.60;;;5.10;99.90;;;;;;5088185;28;20265;-88
2021/01/24 11:21:32;;;;;;;0.60;0.60;;;3.50;99.90;;;;;;5096025;28;20661;-87
2021/01/24 11:23:58;;;;;;;0.60;0.60;;;;;;;;;;5097432;28;20201;-88
2021/01/24 11:26:25;;;;;;;0.60;0.60;;;;;;;;;;5096212;28;20264;-88
2021/01/24 11:28:52;;;;;;;0.50;0.50;;;3.40;99.90;;;;;;5095245;28;20211;-88
2021/01/24 11:31:37;;;;;;;0.60;0.60;;;3.50;99.90;;;;;;5095606;28;20199;-87
2021/01/24 11:34:04;;;;;;;0.50;0.50;;;;;;;;;;5095454;28;20701;-88
2021/01/24 11:36:31;;;;;;;0.50;0.50;;;;;;;;;;5095650;28;20219;-88
2021/01/24 11:38:57;;;;;;;0.60;0.60;;;3.40;99.90;;;;;;5095448;28;20572;-88
2021/01/24 11:41:24;;;;;;;0.60;0.60;;;3.50;99.90;;;;;;5093453;28;20290;-89
2021/01/24 11:43:50;;;;;;;0.60;0.60;;;3.70;99.90;;;;;;5092942;28;20294;-88
2021/01/24 11:46:39;;;;;;;0.60;0.60;;;3.50;99.90;;;;;;5094624;28;20210;-89
2021/01/24 11:49:14;;;;;;;0.60;0.60;;;3.90;99.90;;;;;;5093137;28;20854;-89
2021/01/24 11:51:56;;;;;;;0.60;0.60;;;4.80;99.90;;;;;;5092312;28;20209;-89
2021/01/24 11:54:22;;;;;;;0.60;0.60;;;;;;;;;;5091510;28;20315;-88
2021/01/24 11:56:49;;;;;;;0.60;0.60;;;;;;;;;;5091694;28;20556;-88
2021/01/24 11:59:15;;;;;;;0.50;0.50;;;4.00;99.90;;;;;;5092973;28;20656;-88
2021/01/24 12:01:45;;;;;;;0.60;0.60;;;4.00;99.90;;;;;;5091747;28;20227;-88
2021/01/24 12:04:14;;;;;;;0.60;0.60;;;4.10;99.90;;;;;;5093773;28;20233;-89
2021/01/24 12:06:41;;;;;;;0.50;0.50;;;;;;;;;;5091621;28;20199;-86
2021/01/24 12:09:07;;;;;;;0.60;0.60;;;4.20;99.90;;;;;;5093476;28;20282;-89
2021/01/24 12:11:35;;;;;;;0.60;0.60;;;;;;;;;;5093662;28;20260;-87
2021/01/24 12:14:02;;;;;;;0.60;0.60;;;;;;;;;;5094108;28;20251;-87
2021/01/24 12:16:28;;;;;;;0.50;0.50;;;4.00;99.90;;;;;;5092159;28;20203;-87
2021/01/24 12:18:54;;;;;;;0.60;0.60;;;;;;;;;;5092560;28;20211;-86
2021/01/24 12:21:22;;;;;;;0.60;0.60;;;4.00;99.90;;;;;;5091883;28;20195;-87
2021/01/24 12:24:08;;;;;;;0.50;0.50;;;3.80;99.90;;;;;;5091709;28;20211;-91
2021/01/24 12:26:34;;;;;;;0.60;0.60;;;;;;;;;;5088549;28;20347;-89
2021/01/24 12:29:01;;;;;;;0.55;0.55;;;4.10;99.90;;;;;;5092383;28;20252;-86
2021/01/24 12:31:27;;;;;;;0.60;0.60;;;3.80;99.90;;;;;;5093126;28;20199;-86
2021/01/24 12:33:53;;;;;;;0.60;0.60;;;4.00;99.90;;;;;;5093133;28;20245;-86
2021/01/24 12:36:21;;;;;;;0.60;0.60;;;5.00;99.90;;;;;;5093247;28;20286;-86
2021/01/24 12:38:48;;;;;;;0.60;0.60;;;;;;;;;;5092724;28;20662;-87
2021/01/24 12:41:15;;;;;;;0.50;0.50;;;3.80;99.90;;;;;;5093685;28;20207;-86
2021/01/24 12:43:41;;;;;;;0.60;0.60;;;;;;;;;;5092054;28;20245;-87
2021/01/24 12:46:07;;;;;;;0.60;0.60;;;3.80;99.90;;;;;;5091297;28;20234;-86
2021/01/24 12:48:34;;;;;;;0.60;0.60;;;;;;;;;;5091818;28;20203;-87
2021/01/24 12:51:00;;;;;;;0.60;0.60;;;3.70;99.90;;;;;;5090932;28;20214;-87
2021/01/24 12:53:27;;;;;;;0.50;0.50;;;5.50;99.90;;;;;;5092387;28;20230;-86
2021/01/24 12:55:54;;;;;;;0.60;0.60;;;2.90;99.90;;;;;;5095026;28;20210;-86
2021/01/24 12:58:20;;;;;;;0.60;0.60;;;3.60;99.90;;;;;;5094405;28;20494;-86
2021/01/24 13:00:47;;;;;;;0.60;0.60;;;3.60;99.90;;;;;;5094254;28;20199;-86
2021/01/24 13:03:13;;;;;;;0.60;0.60;;;3.40;99.90;;;;;;5093532;28;20318;-87
2021/01/24 13:05:39;;;;;;;0.60;0.60;;;6.20;99.90;;;;;;5093665;28;20206;-86
2021/01/24 13:08:09;;;;;;;0.60;0.60;;;5.30;99.90;;;;;;5092831;28;20205;-86
2021/01/24 13:11:25;;;;;;;0.60;0.60;;;3.00;99.90;;;;;;5092264;28;20194;-89
2021/01/24 13:14:04;;;;;;;0.60;0.60;;;3.70;99.90;;;;;;5073193;28;20247;-87
2021/01/24 13:17:01;;;;;;;0.52;0.52;;;3.70;99.90;;;;;;5093897;28;20279;-87
2021/01/24 13:19:57;;;;;;;0.60;0.60;;;5.20;99.90;;;;;;5085473;28;20199;-88
2021/01/24 13:22:48;;;;;;;0.60;0.60;;;3.90;99.90;;;;;;5093001;28;20220;-88
2021/01/24 13:25:19;;;;;;;0.60;0.60;;;4.50;99.90;;;;;;5088843;28;20215;-86
2021/01/24 13:27:59;;;;;;;0.60;0.60;;;4.30;99.90;;;;;;5087365;28;20222;-88
2021/01/24 13:30:36;;;;;;;0.60;0.60;;;4.30;99.90;;;;;;5089090;28;20278;-87
2021/01/24 13:33:05;;;;;;;0.60;0.60;;;5.10;99.90;;;;;;5089808;28;20215;-86
2021/01/24 13:36:03;;;;;;;0.60;0.60;;;4.10;99.90;;;;;;5091943;28;20203;-88
2021/01/24 13:38:53;;;;;;;0.60;0.60;;;4.10;99.90;;;;;;5093324;28;20206;-88
2021/01/24 13:45:04;;;;;;;0.50;0.50;;;4.00;99.90;;;;;;5084034;28;20215;-88
2021/01/24 13:47:51;;;;;;;0.60;0.60;;;5.70;99.90;;;;;;5092920;28;20642;-87
2021/01/24 13:50:39;;;;;;;0.60;0.60;;;4.80;99.90;;;;;;5084751;28;20207;-87
2021/01/24 13:53:13;;;;;;;0.50;0.50;;;4.00;99.90;;;;;;5092763;28;20227;-87
2021/01/24 13:55:56;;;;;;;0.60;0.60;;;5.00;99.90;;;;;;5092293;28;20294;-87
2021/01/24 13:58:38;;;;;;;0.57;0.57;;;4.00;99.90;;;;;;5091851;28;20248;-87
2021/01/24 14:01:48;;;;;;;0.60;0.60;;;5.00;99.90;;;;;;5092336;28;20947;-87
2021/01/24 14:04:57;;;;;;;0.52;0.52;;;4.00;99.90;;;;;;5029105;28;20770;-87
2021/01/24 14:07:38;;;;;;;0.60;0.60;;;3.40;99.90;;;;;;4968372;28;20215;-86
2021/01/24 14:13:04;;;;;;;0.55;0.55;;;5.70;99.90;;;;;;5027347;28;20228;-89
2021/01/24 14:16:03;;;;;;;0.60;0.60;;;3.20;99.90;;;;;;5067195;28;20665;-88
2021/01/24 14:18:49;;;;;;;;;;;;;;;;;;;;;
2021/01/24 14:21:48;;;;;;;0.60;0.60;;;4.10;99.90;;;;;;5086799;28;20556;-89
2021/01/24 14:27:43;;;;;;;0.60;0.60;;;3.70;99.90;;;;;;5088588;28;20207;-88
2021/01/24 14:33:22;;;;;;;0.60;0.60;;;5.10;99.90;;;;;;5084472;28;20640;-88